sensor_id;sensor_type;location;lat;lon;timestamp;temperature;humidity
41985;DHT22;28319;48.116;10.818;2023-05-10T00:02:35;13.80;99.90
41985;DHT22;28319;48.116;10.818;2023-05-10T00:07:37;13.80;99.90
41985;DHT22;28319;48.116;10.818;2023-05-10T00:12:40;13.90;99.90
41985;DHT22;28319;48.116;10.818;2023-05-10T00:17:43;13.80;99.90
41985;DHT22;28319;48.116;10.818;2023-05-10T00:22:45;13.70;99.90
41985;DHT22;28319;48.116;10.818;2023-05-10T00:27:47;13.80;99.90
41985;DHT22;28319;48.116;10.818;2023-05-10T00:32:51;13.60;99.90
41985;DHT22;28319;48.116;10.818;2023-05-10T00:37:53;13.60;99.90
41985;DHT22;28319;48.116;10.818;2023-05-10T00:42:55;13.50;99.90
41985;DHT22;28319;48.116;10.818;2023-05-10T00:47:59;13.50;99.90
41985;DHT22;28319;48.116;10.818;2023-05-10T00:53:02;13.50;99.90
41985;DHT22;28319;48.116;10.818;2023-05-10T00:58:05;13.50;99.90
41985;DHT22;28319;48.116;10.818;2023-05-10T01:03:09;13.40;99.90
41985;DHT22;28319;48.116;10.818;2023-05-10T01:08:11;13.40;99.90
41985;DHT22;28319;48.116;10.818;2023-05-10T01:13:15;13.50;99.90
41985;DHT22;28319;48.116;10.818;2023-05-10T01:18:22;13.50;99.90
41985;DHT22;28319;48.116;10.818;2023-05-10T01:23:45;13.50;99.90
41985;DHT22;28319;48.116;10.818;2023-05-10T01:29:05;13.40;99.90
41985;DHT22;28319;48.116;10.818;2023-05-10T01:34:16;13.50;99.90
41985;DHT22;28319;48.116;10.818;2023-05-10T01:39:24;13.40;99.90
41985;DHT22;28319;48.116;10.818;2023-05-10T01:44:31;13.30;99.90
41985;DHT22;28319;48.116;10.818;2023-05-10T01:49:41;13.30;99.90
41985;DHT22;28319;48.116;10.818;2023-05-10T01:54:52;13.40;99.90
41985;DHT22;28319;48.116;10.818;2023-05-10T01:59:56;13.40;99.90
41985;DHT22;28319;48.116;10.818;2023-05-10T02:05:02;13.40;99.90
41985;DHT22;28319;48.116;10.818;2023-05-10T02:10:07;13.30;99.90
41985;DHT22;28319;48.116;10.818;2023-05-10T02:15:11;13.30;99.90
41985;DHT22;28319;48.116;10.818;2023-05-10T02:20:17;13.30;99.90
41985;DHT22;28319;48.116;10.818;2023-05-10T02:25:22;13.30;99.90
41985;DHT22;28319;48.116;10.818;2023-05-10T02:30:25;13.30;99.90
41985;DHT22;28319;48.116;10.818;2023-05-10T02:35:29;13.20;99.90
41985;DHT22;28319;48.116;10.818;2023-05-10T02:40:34;13.30;99.90
41985;DHT22;28319;48.116;10.818;2023-05-10T02:45:37;13.20;99.90
41985;DHT22;28319;48.116;10.818;2023-05-10T02:50:44;13.20;99.90
41985;DHT22;28319;48.116;10.818;2023-05-10T02:55:50;13.10;99.90
41985;DHT22;28319;48.116;10.818;2023-05-10T03:00:54;13.10;99.90
41985;DHT22;28319;48.116;10.818;2023-05-10T03:05:58;13.20;99.90
41985;DHT22;28319;48.116;10.818;2023-05-10T03:11:13;13.10;99.90
41985;DHT22;28319;48.116;10.818;2023-05-10T03:16:24;13.20;99.90
41985;DHT22;28319;48.116;10.818;2023-05-10T03:21:29;13.10;99.90
41985;DHT22;28319;48.116;10.818;2023-05-10T03:26:32;13.00;99.90
41985;DHT22;28319;48.116;10.818;2023-05-10T03:31:34;13.00;99.90
41985;DHT22;28319;48.116;10.818;2023-05-10T03:36:38;13.00;99.90
41985;DHT22;28319;48.116;10.818;2023-05-10T03:41:40;12.90;99.90
41985;DHT22;28319;48.116;10.818;2023-05-10T03:46:42;13.00;99.90
41985;DHT22;28319;48.116;10.818;2023-05-10T03:51:45;12.80;99.90
41985;DHT22;28319;48.116;10.818;2023-05-10T03:56:47;12.80;99.90
41985;DHT22;28319;48.116;10.818;2023-05-10T04:01:49;12.80;99.90
41985;DHT22;28319;48.116;10.818;2023-05-10T04:06:53;12.80;99.90
41985;DHT22;28319;48.116;10.818;2023-05-10T04:11:55;12.70;99.90
41985;DHT22;28319;48.116;10.818;2023-05-10T04:16:57;12.70;99.90
41985;DHT22;28319;48.116;10.818;2023-05-10T04:22:02;12.60;99.90
41985;DHT22;28319;48.116;10.818;2023-05-10T04:27:04;12.70;99.90
41985;DHT22;28319;48.116;10.818;2023-05-10T04:32:06;12.70;99.90
41985;DHT22;28319;48.116;10.818;2023-05-10T04:37:09;12.70;99.90
41985;DHT22;28319;48.116;10.818;2023-05-10T04:42:12;12.60;99.90
41985;DHT22;28319;48.116;10.818;2023-05-10T04:47:15;12.60;99.90
41985;DHT22;28319;48.116;10.818;2023-05-10T04:52:18;12.70;99.90
41985;DHT22;28319;48.116;10.818;2023-05-10T04:57:21;12.70;99.90
41985;DHT22;28319;48.116;10.818;2023-05-10T05:02:23;12.60;99.90
41985;DHT22;28319;48.116;10.818;2023-05-10T05:07:26;12.60;99.90
41985;DHT22;28319;48.116;10.818;2023-05-10T05:12:29;12.60;99.90
41985;DHT22;28319;48.116;10.818;2023-05-10T05:17:31;12.70;99.90
41985;DHT22;28319;48.116;10.818;2023-05-10T05:22:35;12.80;99.90
41985;DHT22;28319;48.116;10.818;2023-05-10T05:27:37;12.70;99.90
41985;DHT22;28319;48.116;10.818;2023-05-10T05:32:39;12.70;99.90
41985;DHT22;28319;48.116;10.818;2023-05-10T05:37:43;12.70;99.90
41985;DHT22;28319;48.116;10.818;2023-05-10T05:42:45;12.70;99.90
41985;DHT22;28319;48.116;10.818;2023-05-10T05:47:47;12.70;99.90
41985;DHT22;28319;48.116;10.818;2023-05-10T05:52:50;12.60;99.90
41985;DHT22;28319;48.116;10.818;2023-05-10T05:57:52;12.70;99.90
41985;DHT22;28319;48.116;10.818;2023-05-10T06:02:54;12.70;99.90
41985;DHT22;28319;48.116;10.818;2023-05-10T06:07:59;12.80;99.90
41985;DHT22;28319;48.116;10.818;2023-05-10T06:13:02;12.90;99.90
41985;DHT22;28319;48.116;10.818;2023-05-10T06:18:04;13.00;99.90
41985;DHT22;28319;48.116;10.818;2023-05-10T06:23:07;13.10;99.90
41985;DHT22;28319;48.116;10.818;2023-05-10T06:28:09;13.10;99.90
41985;DHT22;28319;48.116;10.818;2023-05-10T06:33:11;13.20;99.90
41985;DHT22;28319;48.116;10.818;2023-05-10T06:38:15;13.20;99.90
41985;DHT22;28319;48.116;10.818;2023-05-10T06:43:17;13.40;99.90
41985;DHT22;28319;48.116;10.818;2023-05-10T06:48:19;13.40;99.90
41985;DHT22;28319;48.116;10.818;2023-05-10T06:53:22;13.40;99.90
41985;DHT22;28319;48.116;10.818;2023-05-10T06:58:24;13.40;99.90
41985;DHT22;28319;48.116;10.818;2023-05-10T07:03:26;13.50;99.90
41985;DHT22;28319;48.116;10.818;2023-05-10T07:08:30;13.50;99.90
41985;DHT22;28319;48.116;10.818;2023-05-10T07:13:32;13.50;99.90
41985;DHT22;28319;48.116;10.818;2023-05-10T07:18:34;13.70;99.90
41985;DHT22;28319;48.116;10.818;2023-05-10T07:23:38;13.60;99.90
41985;DHT22;28319;48.116;10.818;2023-05-10T07:28:40;13.70;99.90
41985;DHT22;28319;48.116;10.818;2023-05-10T07:33:42;13.80;99.90
41985;DHT22;28319;48.116;10.818;2023-05-10T07:38:45;13.70;99.90
41985;DHT22;28319;48.116;10.818;2023-05-10T07:43:47;13.70;99.90
41985;DHT22;28319;48.116;10.818;2023-05-10T07:48:49;14.00;99.90
41985;DHT22;28319;48.116;10.818;2023-05-10T07:53:52;13.90;99.90
41985;DHT22;28319;48.116;10.818;2023-05-10T07:58:55;13.90;99.90
41985;DHT22;28319;48.116;10.818;2023-05-10T08:03:57;14.00;99.90
41985;DHT22;28319;48.116;10.818;2023-05-10T08:09:01;14.20;99.90
41985;DHT22;28319;48.116;10.818;2023-05-10T08:14:03;14.20;99.90
41985;DHT22;28319;48.116;10.818;2023-05-10T08:19:05;14.20;99.90
41985;DHT22;28319;48.116;10.818;2023-05-10T08:24:08;14.30;99.90
41985;DHT22;28319;48.116;10.818;2023-05-10T08:29:10;14.50;99.90
41985;DHT22;28319;48.116;10.818;2023-05-10T08:34:12;14.60;99.90
41985;DHT22;28319;48.116;10.818;2023-05-10T08:39:16;14.70;99.90
41985;DHT22;28319;48.116;10.818;2023-05-10T08:44:18;14.80;99.90
41985;DHT22;28319;48.116;10.818;2023-05-10T08:49:20;14.70;99.90
41985;DHT22;28319;48.116;10.818;2023-05-10T08:54:24;14.80;99.90
41985;DHT22;28319;48.116;10.818;2023-05-10T08:59:27;14.90;99.90
41985;DHT22;28319;48.116;10.818;2023-05-10T09:04:29;15.10;99.90
41985;DHT22;28319;48.116;10.818;2023-05-10T09:09:35;15.10;99.90
41985;DHT22;28319;48.116;10.818;2023-05-10T09:14:38;15.20;99.90
41985;DHT22;28319;48.116;10.818;2023-05-10T09:19:40;15.20;99.90
41985;DHT22;28319;48.116;10.818;2023-05-10T09:24:44;15.10;99.90
41985;DHT22;28319;48.116;10.818;2023-05-10T09:29:46;15.00;99.90
41985;DHT22;28319;48.116;10.818;2023-05-10T09:34:49;14.80;99.90
41985;DHT22;28319;48.116;10.818;2023-05-10T09:39:54;14.20;99.90
41985;DHT22;28319;48.116;10.818;2023-05-10T09:45:01;14.10;99.90
41985;DHT22;28319;48.116;10.818;2023-05-10T09:50:03;14.20;99.90
41985;DHT22;28319;48.116;10.818;2023-05-10T09:55:08;14.50;99.90
41985;DHT22;28319;48.116;10.818;2023-05-10T10:00:10;14.60;99.90
41985;DHT22;28319;48.116;10.818;2023-05-10T10:05:18;14.60;99.90
41985;DHT22;28319;48.116;10.818;2023-05-10T10:10:22;14.60;99.90
41985;DHT22;28319;48.116;10.818;2023-05-10T10:15:24;14.60;99.90
41985;DHT22;28319;48.116;10.818;2023-05-10T10:20:27;14.50;99.90
41985;DHT22;28319;48.116;10.818;2023-05-10T10:25:31;14.60;99.90
41985;DHT22;28319;48.116;10.818;2023-05-10T10:30:39;14.50;99.90
41985;DHT22;28319;48.116;10.818;2023-05-10T10:35:43;14.60;99.90
41985;DHT22;28319;48.116;10.818;2023-05-10T10:40:48;14.90;99.90
41985;DHT22;28319;48.116;10.818;2023-05-10T10:46:11;15.30;99.90
41985;DHT22;28319;48.116;10.818;2023-05-10T10:51:14;15.40;99.90
41985;DHT22;28319;48.116;10.818;2023-05-10T10:56:22;15.40;99.90
41985;DHT22;28319;48.116;10.818;2023-05-10T11:01:33;15.50;99.90
41985;DHT22;28319;48.116;10.818;2023-05-10T11:06:36;15.60;99.90
41985;DHT22;28319;48.116;10.818;2023-05-10T11:11:49;15.60;99.90
41985;DHT22;28319;48.116;10.818;2023-05-10T11:16:52;15.40;99.90
41985;DHT22;28319;48.116;10.818;2023-05-10T11:22:12;15.40;99.90
41985;DHT22;28319;48.116;10.818;2023-05-10T11:27:16;15.60;99.90
41985;DHT22;28319;48.116;10.818;2023-05-10T11:32:19;15.50;99.90
41985;DHT22;28319;48.116;10.818;2023-05-10T11:37:21;15.50;99.90
41985;DHT22;28319;48.116;10.818;2023-05-10T11:42:25;15.50;99.90
41985;DHT22;28319;48.116;10.818;2023-05-10T11:47:27;15.40;99.90
41985;DHT22;28319;48.116;10.818;2023-05-10T11:52:29;15.30;99.90
41985;DHT22;28319;48.116;10.818;2023-05-10T11:57:32;15.10;99.90
41985;DHT22;28319;48.116;10.818;2023-05-10T12:02:34;14.80;99.90
41985;DHT22;28319;48.116;10.818;2023-05-10T12:07:36;14.90;99.90
41985;DHT22;28319;48.116;10.818;2023-05-10T12:12:42;14.70;99.90
41985;DHT22;28319;48.116;10.818;2023-05-10T12:17:44;14.90;99.90
41985;DHT22;28319;48.116;10.818;2023-05-10T12:22:49;14.70;99.90
41985;DHT22;28319;48.116;10.818;2023-05-10T12:27:54;14.40;99.90
41985;DHT22;28319;48.116;10.818;2023-05-10T12:33:00;14.20;99.90
41985;DHT22;28319;48.116;10.818;2023-05-10T12:38:25;14.10;99.90
41985;DHT22;28319;48.116;10.818;2023-05-10T12:43:29;13.90;99.90
41985;DHT22;28319;48.116;10.818;2023-05-10T12:48:31;13.30;99.90
41985;DHT22;28319;48.116;10.818;2023-05-10T12:53:34;13.40;99.90
41985;DHT22;28319;48.116;10.818;2023-05-10T12:58:38;13.20;99.90
41985;DHT22;28319;48.116;10.818;2023-05-10T13:03:40;13.00;99.90
41985;DHT22;28319;48.116;10.818;2023-05-10T13:08:43;13.00;99.90
41985;DHT22;28319;48.116;10.818;2023-05-10T13:13:47;12.90;99.90
41985;DHT22;28319;48.116;10.818;2023-05-10T13:18:48;12.70;99.90
41985;DHT22;28319;48.116;10.818;2023-05-10T13:23:51;13.00;99.90
41985;DHT22;28319;48.116;10.818;2023-05-10T13:28:54;12.90;99.90
41985;DHT22;28319;48.116;10.818;2023-05-10T13:33:56;13.00;99.90
41985;DHT22;28319;48.116;10.818;2023-05-10T13:38:58;12.90;99.90
41985;DHT22;28319;48.116;10.818;2023-05-10T13:44:03;12.80;99.90
41985;DHT22;28319;48.116;10.818;2023-05-10T13:49:05;12.90;99.90
41985;DHT22;28319;48.116;10.818;2023-05-10T13:54:07;13.00;99.90
41985;DHT22;28319;48.116;10.818;2023-05-10T13:59:11;12.90;99.90
41985;DHT22;28319;48.116;10.818;2023-05-10T14:04:13;12.80;99.90
41985;DHT22;28319;48.116;10.818;2023-05-10T14:09:15;12.80;99.90
41985;DHT22;28319;48.116;10.818;2023-05-10T14:14:19;12.90;99.90
41985;DHT22;28319;48.116;10.818;2023-05-10T14:19:21;12.90;99.90
41985;DHT22;28319;48.116;10.818;2023-05-10T14:24:23;12.70;99.90
41985;DHT22;28319;48.116;10.818;2023-05-10T14:29:26;12.80;99.90
41985;DHT22;28319;48.116;10.818;2023-05-10T14:34:28;12.70;99.90
41985;DHT22;28319;48.116;10.818;2023-05-10T14:39:30;12.70;99.90
41985;DHT22;28319;48.116;10.818;2023-05-10T14:44:35;12.80;99.90
41985;DHT22;28319;48.116;10.818;2023-05-10T14:49:37;12.70;99.90
41985;DHT22;28319;48.116;10.818;2023-05-10T14:54:39;12.80;99.90
41985;DHT22;28319;48.116;10.818;2023-05-10T14:59:42;12.80;99.90
41985;DHT22;28319;48.116;10.818;2023-05-10T15:04:44;12.80;99.90
41985;DHT22;28319;48.116;10.818;2023-05-10T15:09:46;12.80;99.90
41985;DHT22;28319;48.116;10.818;2023-05-10T15:14:49;12.80;99.90
41985;DHT22;28319;48.116;10.818;2023-05-10T15:19:51;12.80;99.90
41985;DHT22;28319;48.116;10.818;2023-05-10T15:24:53;12.50;99.90
41985;DHT22;28319;48.116;10.818;2023-05-10T15:29:57;12.70;99.90
41985;DHT22;28319;48.116;10.818;2023-05-10T15:35:00;12.40;99.90
41985;DHT22;28319;48.116;10.818;2023-05-10T15:40:03;12.50;99.90
41985;DHT22;28319;48.116;10.818;2023-05-10T15:45:08;12.30;99.90
41985;DHT22;28319;48.116;10.818;2023-05-10T15:50:11;12.20;99.90
41985;DHT22;28319;48.116;10.818;2023-05-10T15:55:13;12.20;99.90
41985;DHT22;28319;48.116;10.818;2023-05-10T16:00:17;12.40;99.90
41985;DHT22;28319;48.116;10.818;2023-05-10T16:05:19;12.20;99.90
41985;DHT22;28319;48.116;10.818;2023-05-10T16:10:21;11.90;99.90
41985;DHT22;28319;48.116;10.818;2023-05-10T16:15:25;12.00;99.90
41985;DHT22;28319;48.116;10.818;2023-05-10T16:20:27;11.80;99.90
41985;DHT22;28319;48.116;10.818;2023-05-10T16:25:29;11.70;99.90
41985;DHT22;28319;48.116;10.818;2023-05-10T16:30:33;11.80;99.90
41985;DHT22;28319;48.116;10.818;2023-05-10T16:35:35;11.70;99.90
41985;DHT22;28319;48.116;10.818;2023-05-10T16:40:37;11.70;99.90
41985;DHT22;28319;48.116;10.818;2023-05-10T16:45:40;11.80;99.90
41985;DHT22;28319;48.116;10.818;2023-05-10T16:50:43;11.80;99.90
41985;DHT22;28319;48.116;10.818;2023-05-10T16:55:45;12.00;99.90
41985;DHT22;28319;48.116;10.818;2023-05-10T17:00:48;12.00;99.90
41985;DHT22;28319;48.116;10.818;2023-05-10T17:05:50;12.00;99.90
41985;DHT22;28319;48.116;10.818;2023-05-10T17:10:52;12.10;99.90
41985;DHT22;28319;48.116;10.818;2023-05-10T17:15:56;12.00;99.90
41985;DHT22;28319;48.116;10.818;2023-05-10T17:20:58;12.10;99.90
41985;DHT22;28319;48.116;10.818;2023-05-10T17:26:03;12.30;99.90
41985;DHT22;28319;48.116;10.818;2023-05-10T17:31:06;12.20;99.90
41985;DHT22;28319;48.116;10.818;2023-05-10T17:36:08;12.20;99.90
41985;DHT22;28319;48.116;10.818;2023-05-10T17:41:10;12.00;99.90
41985;DHT22;28319;48.116;10.818;2023-05-10T17:46:13;11.90;99.90
41985;DHT22;28319;48.116;10.818;2023-05-10T17:51:17;11.90;99.90
41985;DHT22;28319;48.116;10.818;2023-05-10T17:56:19;11.90;99.90
41985;DHT22;28319;48.116;10.818;2023-05-10T18:01:23;11.90;99.90
41985;DHT22;28319;48.116;10.818;2023-05-10T18:06:25;12.00;99.90
41985;DHT22;28319;48.116;10.818;2023-05-10T18:11:27;12.10;99.90
41985;DHT22;28319;48.116;10.818;2023-05-10T18:16:31;12.10;99.90
41985;DHT22;28319;48.116;10.818;2023-05-10T18:21:32;12.10;99.90
41985;DHT22;28319;48.116;10.818;2023-05-10T18:26:35;12.00;99.90
41985;DHT22;28319;48.116;10.818;2023-05-10T18:31:38;12.00;99.90
41985;DHT22;28319;48.116;10.818;2023-05-10T18:36:40;12.00;99.90
41985;DHT22;28319;48.116;10.818;2023-05-10T18:41:43;12.00;99.90
41985;DHT22;28319;48.116;10.818;2023-05-10T18:46:46;12.00;99.90
41985;DHT22;28319;48.116;10.818;2023-05-10T18:51:51;12.10;99.90
41985;DHT22;28319;48.116;10.818;2023-05-10T18:56:53;12.10;99.90
41985;DHT22;28319;48.116;10.818;2023-05-10T19:01:58;12.10;99.90
41985;DHT22;28319;48.116;10.818;2023-05-10T19:07:00;12.00;99.90
41985;DHT22;28319;48.116;10.818;2023-05-10T19:12:03;11.90;99.90
41985;DHT22;28319;48.116;10.818;2023-05-10T19:17:06;11.80;99.90
41985;DHT22;28319;48.116;10.818;2023-05-10T19:22:08;11.80;99.90
41985;DHT22;28319;48.116;10.818;2023-05-10T19:27:10;11.70;99.90
41985;DHT22;28319;48.116;10.818;2023-05-10T19:32:14;11.60;99.90
41985;DHT22;28319;48.116;10.818;2023-05-10T19:37:15;11.60;99.90
41985;DHT22;28319;48.116;10.818;2023-05-10T19:42:18;11.50;99.90
41985;DHT22;28319;48.116;10.818;2023-05-10T19:47:22;11.30;99.90
41985;DHT22;28319;48.116;10.818;2023-05-10T19:52:24;11.10;99.90
41985;DHT22;28319;48.116;10.818;2023-05-10T19:57:26;11.00;99.90
41985;DHT22;28319;48.116;10.818;2023-05-10T20:02:29;10.80;99.90
41985;DHT22;28319;48.116;10.818;2023-05-10T20:07:31;10.70;99.90
41985;DHT22;28319;48.116;10.818;2023-05-10T20:12:33;10.80;99.90
41985;DHT22;28319;48.116;10.818;2023-05-10T20:17:37;10.70;99.90
41985;DHT22;28319;48.116;10.818;2023-05-10T20:22:39;10.60;99.90
41985;DHT22;28319;48.116;10.818;2023-05-10T20:27:41;10.60;99.90
41985;DHT22;28319;48.116;10.818;2023-05-10T20:32:44;10.50;99.90
41985;DHT22;28319;48.116;10.818;2023-05-10T20:37:46;10.40;99.90
41985;DHT22;28319;48.116;10.818;2023-05-10T20:42:48;10.50;99.90
41985;DHT22;28319;48.116;10.818;2023-05-10T20:47:54;10.40;99.90
41985;DHT22;28319;48.116;10.818;2023-05-10T20:52:57;10.40;99.90
41985;DHT22;28319;48.116;10.818;2023-05-10T20:58:00;10.30;99.90
41985;DHT22;28319;48.116;10.818;2023-05-10T21:03:03;10.30;99.90
41985;DHT22;28319;48.116;10.818;2023-05-10T21:08:05;10.20;99.90
41985;DHT22;28319;48.116;10.818;2023-05-10T21:13:07;10.30;99.90
41985;DHT22;28319;48.116;10.818;2023-05-10T21:18:11;10.20;99.90
41985;DHT22;28319;48.116;10.818;2023-05-10T21:23:13;10.20;99.90
41985;DHT22;28319;48.116;10.818;2023-05-10T21:28:15;10.10;99.90
41985;DHT22;28319;48.116;10.818;2023-05-10T21:33:18;10.00;99.90
41985;DHT22;28319;48.116;10.818;2023-05-10T21:38:20;10.00;99.90
41985;DHT22;28319;48.116;10.818;2023-05-10T21:43:23;10.10;99.90
41985;DHT22;28319;48.116;10.818;2023-05-10T21:48:26;10.00;99.90
41985;DHT22;28319;48.116;10.818;2023-05-10T21:53:28;10.10;99.90
41985;DHT22;28319;48.116;10.818;2023-05-10T21:58:30;10.00;99.90
41985;DHT22;28319;48.116;10.818;2023-05-10T22:03:34;10.20;99.90
41985;DHT22;28319;48.116;10.818;2023-05-10T22:08:36;10.10;99.90
41985;DHT22;28319;48.116;10.818;2023-05-10T22:13:38;10.10;99.90
41985;DHT22;28319;48.116;10.818;2023-05-10T22:18:42;10.10;99.90
41985;DHT22;28319;48.116;10.818;2023-05-10T22:23:44;10.00;99.90
41985;DHT22;28319;48.116;10.818;2023-05-10T22:28:46;10.10;99.90
41985;DHT22;28319;48.116;10.818;2023-05-10T22:33:50;10.00;99.90
41985;DHT22;28319;48.116;10.818;2023-05-10T22:38:52;10.00;99.90
41985;DHT22;28319;48.116;10.818;2023-05-10T22:43:54;10.10;99.90
41985;DHT22;28319;48.116;10.818;2023-05-10T22:48:58;10.00;99.90
41985;DHT22;28319;48.116;10.818;2023-05-10T22:53:59;10.00;99.90
41985;DHT22;28319;48.116;10.818;2023-05-10T22:59:01;10.00;99.90
41985;DHT22;28319;48.116;10.818;2023-05-10T23:04:05;9.90;99.90
41985;DHT22;28319;48.116;10.818;2023-05-10T23:09:07;9.90;99.90
41985;DHT22;28319;48.116;10.818;2023-05-10T23:14:09;10.00;99.90
41985;DHT22;28319;48.116;10.818;2023-05-10T23:19:12;9.90;99.90
41985;DHT22;28319;48.116;10.818;2023-05-10T23:24:14;9.70;99.90
41985;DHT22;28319;48.116;10.818;2023-05-10T23:29:17;9.70;99.90
41985;DHT22;28319;48.116;10.818;2023-05-10T23:34:20;9.70;99.90
41985;DHT22;28319;48.116;10.818;2023-05-10T23:39:22;9.70;99.90
41985;DHT22;28319;48.116;10.818;2023-05-10T23:44:24;9.70;99.90
41985;DHT22;28319;48.116;10.818;2023-05-10T23:49:28;9.60;99.90
41985;DHT22;28319;48.116;10.818;2023-05-10T23:54:29;9.70;99.90
41985;DHT22;28319;48.116;10.818;2023-05-10T23:59:31;9.70;99.90
